sensor_id;sensor_type;location;lat;lon;timestamp;pressure;altitude;pressure_sealevel;temperature;humidity
13581;BME280;6861;46.170;7.222;2023-04-27T00:00:37;95973.94;;;14.65;37.38
13581;BME280;6861;46.170;7.222;2023-04-27T00:03:06;95977.66;;;14.64;37.12
13581;BME280;6861;46.170;7.222;2023-04-27T00:05:34;95974.53;;;14.62;37.02
13581;BME280;6861;46.170;7.222;2023-04-27T00:08:05;95981.63;;;14.62;38.15
13581;BME280;6861;46.170;7.222;2023-04-27T00:10:33;95971.19;;;14.57;38.38
13581;BME280;6861;46.170;7.222;2023-04-27T00:13:02;95980.72;;;14.53;38.28
13581;BME280;6861;46.170;7.222;2023-04-27T00:15:31;95978.97;;;14.48;38.62
13581;BME280;6861;46.170;7.222;2023-04-27T00:17:59;95978.75;;;14.45;39.09
13581;BME280;6861;46.170;7.222;2023-04-27T00:20:28;95976.97;;;14.40;38.74
13581;BME280;6861;46.170;7.222;2023-04-27T00:22:56;95973.06;;;14.37;38.54
13581;BME280;6861;46.170;7.222;2023-04-27T00:25:24;95968.38;;;14.34;38.76
13581;BME280;6861;46.170;7.222;2023-04-27T00:27:52;95980.03;;;14.28;38.82
13581;BME280;6861;46.170;7.222;2023-04-27T00:30:21;95980.63;;;14.25;38.59
13581;BME280;6861;46.170;7.222;2023-04-27T00:32:50;95978.56;;;14.22;38.82
13581;BME280;6861;46.170;7.222;2023-04-27T00:35:18;95980.69;;;14.20;39.02
13581;BME280;6861;46.170;7.222;2023-04-27T00:37:47;95976.50;;;14.19;38.75
13581;BME280;6861;46.170;7.222;2023-04-27T00:40:15;95977.06;;;14.16;39.01
13581;BME280;6861;46.170;7.222;2023-04-27T00:42:43;95972.16;;;14.09;39.31
13581;BME280;6861;46.170;7.222;2023-04-27T00:45:11;95972.03;;;14.01;39.62
13581;BME280;6861;46.170;7.222;2023-04-27T00:47:40;95976.09;;;13.93;39.74
13581;BME280;6861;46.170;7.222;2023-04-27T00:50:10;95969.06;;;13.89;39.75
13581;BME280;6861;46.170;7.222;2023-04-27T00:52:39;95976.75;;;13.85;39.28
13581;BME280;6861;46.170;7.222;2023-04-27T00:55:08;95973.97;;;13.76;40.14
13581;BME280;6861;46.170;7.222;2023-04-27T00:57:36;95973.78;;;13.73;40.11
13581;BME280;6861;46.170;7.222;2023-04-27T01:00:05;95976.69;;;13.71;40.24
13581;BME280;6861;46.170;7.222;2023-04-27T01:02:36;95975.69;;;13.67;40.20
13581;BME280;6861;46.170;7.222;2023-04-27T01:05:05;95982.84;;;13.62;40.82
13581;BME280;6861;46.170;7.222;2023-04-27T01:07:37;95983.91;;;13.61;40.33
13581;BME280;6861;46.170;7.222;2023-04-27T01:10:06;95982.13;;;13.56;40.48
13581;BME280;6861;46.170;7.222;2023-04-27T01:12:35;95981.63;;;13.54;40.72
13581;BME280;6861;46.170;7.222;2023-04-27T01:15:05;95973.75;;;13.54;39.70
13581;BME280;6861;46.170;7.222;2023-04-27T01:17:33;95976.38;;;13.54;40.41
13581;BME280;6861;46.170;7.222;2023-04-27T01:20:01;95971.69;;;13.51;40.72
13581;BME280;6861;46.170;7.222;2023-04-27T01:22:32;95979.06;;;13.49;40.34
13581;BME280;6861;46.170;7.222;2023-04-27T01:25:02;95987.53;;;13.46;40.49
13581;BME280;6861;46.170;7.222;2023-04-27T01:27:30;95999.66;;;13.42;40.67
13581;BME280;6861;46.170;7.222;2023-04-27T01:29:58;95990.22;;;13.41;40.62
13581;BME280;6861;46.170;7.222;2023-04-27T01:32:26;95993.41;;;13.38;40.55
13581;BME280;6861;46.170;7.222;2023-04-27T01:34:54;95997.16;;;13.32;40.44
13581;BME280;6861;46.170;7.222;2023-04-27T01:37:22;95993.50;;;13.28;40.58
13581;BME280;6861;46.170;7.222;2023-04-27T01:39:50;95992.00;;;13.22;41.20
13581;BME280;6861;46.170;7.222;2023-04-27T01:42:20;95987.81;;;13.21;41.05
13581;BME280;6861;46.170;7.222;2023-04-27T01:44:48;95982.34;;;13.17;41.29
13581;BME280;6861;46.170;7.222;2023-04-27T01:47:16;95988.38;;;13.18;40.81
13581;BME280;6861;46.170;7.222;2023-04-27T01:49:44;95987.34;;;13.13;41.55
13581;BME280;6861;46.170;7.222;2023-04-27T01:52:12;95996.56;;;13.11;41.30
13581;BME280;6861;46.170;7.222;2023-04-27T01:54:40;96010.53;;;13.06;41.49
13581;BME280;6861;46.170;7.222;2023-04-27T01:57:09;96019.03;;;12.98;42.17
13581;BME280;6861;46.170;7.222;2023-04-27T01:59:38;96016.75;;;12.92;42.53
13581;BME280;6861;46.170;7.222;2023-04-27T02:02:06;96020.75;;;12.84;42.22
13581;BME280;6861;46.170;7.222;2023-04-27T02:04:35;96025.00;;;12.80;42.03
13581;BME280;6861;46.170;7.222;2023-04-27T02:07:03;96019.00;;;12.74;42.31
13581;BME280;6861;46.170;7.222;2023-04-27T02:09:31;96027.66;;;12.75;42.61
13581;BME280;6861;46.170;7.222;2023-04-27T02:11:59;96023.75;;;12.72;41.92
13581;BME280;6861;46.170;7.222;2023-04-27T02:14:28;96035.28;;;12.76;41.88
13581;BME280;6861;46.170;7.222;2023-04-27T02:16:57;96028.44;;;12.75;42.55
13581;BME280;6861;46.170;7.222;2023-04-27T02:19:26;96035.53;;;12.75;42.96
13581;BME280;6861;46.170;7.222;2023-04-27T02:21:54;96036.91;;;12.67;43.12
13581;BME280;6861;46.170;7.222;2023-04-27T02:24:22;96035.63;;;12.65;43.61
13581;BME280;6861;46.170;7.222;2023-04-27T02:26:50;96038.81;;;12.62;43.44
13581;BME280;6861;46.170;7.222;2023-04-27T02:29:18;96040.38;;;12.63;43.67
13581;BME280;6861;46.170;7.222;2023-04-27T02:31:47;96039.31;;;12.64;42.82
13581;BME280;6861;46.170;7.222;2023-04-27T02:34:16;96045.06;;;12.66;42.97
13581;BME280;6861;46.170;7.222;2023-04-27T02:36:44;96040.38;;;12.63;43.17
13581;BME280;6861;46.170;7.222;2023-04-27T02:39:12;96035.44;;;12.56;43.04
13581;BME280;6861;46.170;7.222;2023-04-27T02:41:41;96039.97;;;12.45;43.28
13581;BME280;6861;46.170;7.222;2023-04-27T02:44:09;96046.88;;;12.36;43.77
13581;BME280;6861;46.170;7.222;2023-04-27T02:46:38;96034.56;;;12.32;43.99
13581;BME280;6861;46.170;7.222;2023-04-27T02:49:06;96038.53;;;12.29;43.21
13581;BME280;6861;46.170;7.222;2023-04-27T02:51:35;96033.28;;;12.29;42.91
13581;BME280;6861;46.170;7.222;2023-04-27T02:54:03;96045.84;;;12.32;43.01
13581;BME280;6861;46.170;7.222;2023-04-27T02:56:31;96042.94;;;12.34;42.58
13581;BME280;6861;46.170;7.222;2023-04-27T02:59:00;96058.16;;;12.37;42.83
13581;BME280;6861;46.170;7.222;2023-04-27T03:01:28;96052.91;;;12.37;43.57
13581;BME280;6861;46.170;7.222;2023-04-27T03:03:56;96054.78;;;12.31;43.26
13581;BME280;6861;46.170;7.222;2023-04-27T03:06:24;96050.63;;;12.25;44.17
13581;BME280;6861;46.170;7.222;2023-04-27T03:08:54;96047.78;;;12.17;44.50
13581;BME280;6861;46.170;7.222;2023-04-27T03:11:22;96054.69;;;12.07;44.95
13581;BME280;6861;46.170;7.222;2023-04-27T03:13:50;96057.34;;;12.02;44.63
13581;BME280;6861;46.170;7.222;2023-04-27T03:16:18;96064.69;;;12.00;44.67
13581;BME280;6861;46.170;7.222;2023-04-27T03:18:46;96058.13;;;12.03;44.66
13581;BME280;6861;46.170;7.222;2023-04-27T03:21:15;96054.97;;;12.06;43.92
13581;BME280;6861;46.170;7.222;2023-04-27T03:23:43;96057.59;;;12.06;44.25
13581;BME280;6861;46.170;7.222;2023-04-27T03:26:13;96065.75;;;11.99;44.48
13581;BME280;6861;46.170;7.222;2023-04-27T03:28:41;96073.13;;;11.92;45.12
13581;BME280;6861;46.170;7.222;2023-04-27T03:31:10;96063.97;;;11.85;45.09
13581;BME280;6861;46.170;7.222;2023-04-27T03:33:39;96073.44;;;11.80;45.43
13581;BME280;6861;46.170;7.222;2023-04-27T03:36:08;96076.06;;;11.75;45.33
13581;BME280;6861;46.170;7.222;2023-04-27T03:38:36;96072.66;;;11.70;46.01
13581;BME280;6861;46.170;7.222;2023-04-27T03:41:05;96084.75;;;11.66;45.90
13581;BME280;6861;46.170;7.222;2023-04-27T03:43:34;96074.00;;;11.62;46.32
13581;BME280;6861;46.170;7.222;2023-04-27T03:46:02;96082.91;;;11.61;46.06
13581;BME280;6861;46.170;7.222;2023-04-27T03:48:30;96085.81;;;11.60;46.12
13581;BME280;6861;46.170;7.222;2023-04-27T03:50:59;96091.84;;;11.60;46.08
13581;BME280;6861;46.170;7.222;2023-04-27T03:53:27;96091.03;;;11.60;46.28
13581;BME280;6861;46.170;7.222;2023-04-27T03:55:56;96090.00;;;11.61;45.74
13581;BME280;6861;46.170;7.222;2023-04-27T03:58:24;96093.66;;;11.65;45.45
13581;BME280;6861;46.170;7.222;2023-04-27T04:00:53;96096.00;;;11.66;46.20
13581;BME280;6861;46.170;7.222;2023-04-27T04:03:22;96090.50;;;11.63;46.18
13581;BME280;6861;46.170;7.222;2023-04-27T04:05:51;96088.69;;;11.58;46.11
13581;BME280;6861;46.170;7.222;2023-04-27T04:08:19;96081.13;;;11.52;46.38
13581;BME280;6861;46.170;7.222;2023-04-27T04:10:47;96083.47;;;11.48;46.17
13581;BME280;6861;46.170;7.222;2023-04-27T04:13:15;96080.09;;;11.42;46.39
13581;BME280;6861;46.170;7.222;2023-04-27T04:15:43;96084.56;;;11.37;46.81
13581;BME280;6861;46.170;7.222;2023-04-27T04:18:13;96098.72;;;11.36;46.15
13581;BME280;6861;46.170;7.222;2023-04-27T04:20:41;96092.41;;;11.37;46.95
13581;BME280;6861;46.170;7.222;2023-04-27T04:23:09;96095.06;;;11.32;46.32
13581;BME280;6861;46.170;7.222;2023-04-27T04:25:37;96102.38;;;11.30;46.50
13581;BME280;6861;46.170;7.222;2023-04-27T04:28:05;96097.19;;;11.25;46.92
13581;BME280;6861;46.170;7.222;2023-04-27T04:30:34;96097.72;;;11.22;46.59
13581;BME280;6861;46.170;7.222;2023-04-27T04:33:02;96092.22;;;11.18;46.98
13581;BME280;6861;46.170;7.222;2023-04-27T04:35:31;96101.41;;;11.15;47.03
13581;BME280;6861;46.170;7.222;2023-04-27T04:37:59;96100.88;;;11.13;46.85
13581;BME280;6861;46.170;7.222;2023-04-27T04:40:28;96100.09;;;11.13;46.96
13581;BME280;6861;46.170;7.222;2023-04-27T04:42:56;96101.94;;;11.07;47.16
13581;BME280;6861;46.170;7.222;2023-04-27T04:45:24;96110.06;;;11.01;47.50
13581;BME280;6861;46.170;7.222;2023-04-27T04:47:52;96116.34;;;10.95;47.92
13581;BME280;6861;46.170;7.222;2023-04-27T04:50:21;96111.88;;;10.95;47.65
13581;BME280;6861;46.170;7.222;2023-04-27T04:52:51;96112.94;;;10.94;47.77
13581;BME280;6861;46.170;7.222;2023-04-27T04:55:19;96128.13;;;10.97;47.70
13581;BME280;6861;46.170;7.222;2023-04-27T04:57:47;96121.84;;;10.98;47.73
13581;BME280;6861;46.170;7.222;2023-04-27T05:00:16;96120.78;;;10.99;47.57
13581;BME280;6861;46.170;7.222;2023-04-27T05:02:44;96128.63;;;10.99;47.88
13581;BME280;6861;46.170;7.222;2023-04-27T05:05:12;96133.09;;;10.99;47.73
13581;BME280;6861;46.170;7.222;2023-04-27T05:07:40;96118.69;;;10.96;48.17
13581;BME280;6861;46.170;7.222;2023-04-27T05:10:10;96127.34;;;11.02;48.34
13581;BME280;6861;46.170;7.222;2023-04-27T05:12:38;96128.13;;;11.02;47.99
13581;BME280;6861;46.170;7.222;2023-04-27T05:15:07;96126.03;;;10.99;48.19
13581;BME280;6861;46.170;7.222;2023-04-27T05:17:35;96125.50;;;10.97;47.89
13581;BME280;6861;46.170;7.222;2023-04-27T05:20:04;96123.16;;;11.01;48.48
13581;BME280;6861;46.170;7.222;2023-04-27T05:22:33;96118.69;;;11.01;48.14
13581;BME280;6861;46.170;7.222;2023-04-27T05:25:02;96124.44;;;11.03;48.52
13581;BME280;6861;46.170;7.222;2023-04-27T05:27:32;96122.63;;;11.04;48.22
13581;BME280;6861;46.170;7.222;2023-04-27T05:30:00;96126.53;;;11.06;48.64
13581;BME280;6861;46.170;7.222;2023-04-27T05:32:28;96125.50;;;11.07;48.70
13581;BME280;6861;46.170;7.222;2023-04-27T05:34:57;96120.25;;;11.07;48.16
13581;BME280;6861;46.170;7.222;2023-04-27T05:37:25;96130.72;;;11.07;48.37
13581;BME280;6861;46.170;7.222;2023-04-27T05:39:53;96125.50;;;11.07;48.20
13581;BME280;6861;46.170;7.222;2023-04-27T05:42:21;96128.63;;;11.14;48.56
13581;BME280;6861;46.170;7.222;2023-04-27T05:44:50;96131.25;;;11.25;48.34
13581;BME280;6861;46.170;7.222;2023-04-27T05:47:19;96131.25;;;11.25;47.89
13581;BME280;6861;46.170;7.222;2023-04-27T05:49:49;96132.25;;;11.29;48.30
13581;BME280;6861;46.170;7.222;2023-04-27T05:52:18;96129.38;;;11.30;48.01
13581;BME280;6861;46.170;7.222;2023-04-27T05:54:47;96127.56;;;11.26;47.69
13581;BME280;6861;46.170;7.222;2023-04-27T05:57:15;96134.88;;;11.29;48.06
13581;BME280;6861;46.170;7.222;2023-04-27T05:59:44;96138.28;;;11.29;48.01
13581;BME280;6861;46.170;7.222;2023-04-27T06:02:13;96139.06;;;11.30;47.76
13581;BME280;6861;46.170;7.222;2023-04-27T06:04:42;96136.97;;;11.32;47.55
13581;BME280;6861;46.170;7.222;2023-04-27T06:07:11;96135.38;;;11.41;47.84
13581;BME280;6861;46.170;7.222;2023-04-27T06:09:42;96137.97;;;11.56;47.29
13581;BME280;6861;46.170;7.222;2023-04-27T06:12:10;96139.78;;;11.61;47.42
13581;BME280;6861;46.170;7.222;2023-04-27T06:14:38;96143.72;;;11.58;47.11
13581;BME280;6861;46.170;7.222;2023-04-27T06:17:06;96135.34;;;11.56;47.79
13581;BME280;6861;46.170;7.222;2023-04-27T06:19:36;96146.09;;;11.60;47.07
13581;BME280;6861;46.170;7.222;2023-04-27T06:22:04;96139.00;;;11.60;47.51
13581;BME280;6861;46.170;7.222;2023-04-27T06:24:32;96140.56;;;11.61;46.78
13581;BME280;6861;46.170;7.222;2023-04-27T06:27:02;96145.56;;;11.63;47.48
13581;BME280;6861;46.170;7.222;2023-04-27T06:29:30;96138.44;;;11.73;47.10
13581;BME280;6861;46.170;7.222;2023-04-27T06:31:58;96144.47;;;11.84;46.37
13581;BME280;6861;46.170;7.222;2023-04-27T06:34:27;96141.56;;;11.96;46.42
13581;BME280;6861;46.170;7.222;2023-04-27T06:36:56;96144.63;;;12.13;46.01
13581;BME280;6861;46.170;7.222;2023-04-27T06:39:25;96141.06;;;12.38;46.00
13581;BME280;6861;46.170;7.222;2023-04-27T06:41:53;96145.94;;;12.94;45.34
13581;BME280;6861;46.170;7.222;2023-04-27T06:44:21;96141.72;;;14.22;43.72
13581;BME280;6861;46.170;7.222;2023-04-27T06:46:49;96145.69;;;16.01;41.21
13581;BME280;6861;46.170;7.222;2023-04-27T06:49:18;96136.31;;;17.56;39.38
13581;BME280;6861;46.170;7.222;2023-04-27T06:51:47;96143.19;;;18.71;37.00
13581;BME280;6861;46.170;7.222;2023-04-27T06:54:16;96141.81;;;19.46;36.28
13581;BME280;6861;46.170;7.222;2023-04-27T06:56:45;96139.09;;;20.40;34.89
13581;BME280;6861;46.170;7.222;2023-04-27T06:59:13;96139.63;;;21.29;33.80
13581;BME280;6861;46.170;7.222;2023-04-27T07:01:41;96137.41;;;22.24;32.93
13581;BME280;6861;46.170;7.222;2023-04-27T07:04:09;96135.94;;;23.35;31.19
13581;BME280;6861;46.170;7.222;2023-04-27T07:06:37;96143.47;;;24.24;29.95
13581;BME280;6861;46.170;7.222;2023-04-27T07:09:06;96137.03;;;24.44;29.16
13581;BME280;6861;46.170;7.222;2023-04-27T07:11:53;96135.16;;;24.64;28.37
13581;BME280;6861;46.170;7.222;2023-04-27T07:14:23;96129.38;;;24.62;28.44
13581;BME280;6861;46.170;7.222;2023-04-27T07:16:51;96126.88;;;25.08;27.85
13581;BME280;6861;46.170;7.222;2023-04-27T07:19:19;96127.31;;;25.75;26.90
13581;BME280;6861;46.170;7.222;2023-04-27T07:21:47;96118.22;;;26.32;26.36
13581;BME280;6861;46.170;7.222;2023-04-27T07:24:16;96117.84;;;26.60;25.07
13581;BME280;6861;46.170;7.222;2023-04-27T07:26:44;96118.97;;;26.93;24.74
13581;BME280;6861;46.170;7.222;2023-04-27T07:29:14;96111.22;;;27.55;24.40
13581;BME280;6861;46.170;7.222;2023-04-27T07:31:52;96102.31;;;27.95;23.95
13581;BME280;6861;46.170;7.222;2023-04-27T07:34:21;96106.56;;;28.61;22.81
13581;BME280;6861;46.170;7.222;2023-04-27T07:36:50;96116.03;;;29.14;21.85
13581;BME280;6861;46.170;7.222;2023-04-27T07:39:20;96103.69;;;28.98;21.59
13581;BME280;6861;46.170;7.222;2023-04-27T07:41:48;96102.75;;;28.66;21.59
13581;BME280;6861;46.170;7.222;2023-04-27T07:44:18;96101.66;;;28.08;22.04
13581;BME280;6861;46.170;7.222;2023-04-27T07:46:46;96102.34;;;27.51;22.53
13581;BME280;6861;46.170;7.222;2023-04-27T07:49:15;96101.00;;;27.30;22.86
13581;BME280;6861;46.170;7.222;2023-04-27T07:51:43;96106.56;;;27.52;22.60
13581;BME280;6861;46.170;7.222;2023-04-27T07:54:12;96097.56;;;27.74;22.92
13581;BME280;6861;46.170;7.222;2023-04-27T07:56:40;96093.03;;;27.85;22.26
13581;BME280;6861;46.170;7.222;2023-04-27T07:59:09;96084.66;;;27.50;22.19
13581;BME280;6861;46.170;7.222;2023-04-27T08:01:39;96085.56;;;27.24;21.56
13581;BME280;6861;46.170;7.222;2023-04-27T08:04:07;96079.59;;;27.41;21.47
13581;BME280;6861;46.170;7.222;2023-04-27T08:06:36;96072.91;;;27.61;22.09
13581;BME280;6861;46.170;7.222;2023-04-27T08:09:05;96068.94;;;27.52;21.22
13581;BME280;6861;46.170;7.222;2023-04-27T08:11:33;96061.75;;;27.22;21.45
13581;BME280;6861;46.170;7.222;2023-04-27T08:14:01;96065.44;;;27.07;22.43
13581;BME280;6861;46.170;7.222;2023-04-27T08:16:29;96061.97;;;27.43;22.29
13581;BME280;6861;46.170;7.222;2023-04-27T08:19:00;96065.63;;;28.24;21.66
13581;BME280;6861;46.170;7.222;2023-04-27T08:21:28;96066.00;;;29.23;20.85
13581;BME280;6861;46.170;7.222;2023-04-27T08:23:56;96056.63;;;30.59;20.10
13581;BME280;6861;46.170;7.222;2023-04-27T08:26:24;96051.84;;;31.99;19.08
13581;BME280;6861;46.170;7.222;2023-04-27T08:28:52;96060.38;;;33.00;18.25
13581;BME280;6861;46.170;7.222;2023-04-27T08:31:22;96052.19;;;33.57;17.39
13581;BME280;6861;46.170;7.222;2023-04-27T08:33:50;96053.50;;;34.59;17.10
13581;BME280;6861;46.170;7.222;2023-04-27T08:36:20;96046.88;;;35.64;16.45
13581;BME280;6861;46.170;7.222;2023-04-27T08:38:50;96054.16;;;36.45;15.71
13581;BME280;6861;46.170;7.222;2023-04-27T08:41:18;96040.44;;;37.16;15.65
13581;BME280;6861;46.170;7.222;2023-04-27T08:43:48;96040.16;;;37.73;14.77
13581;BME280;6861;46.170;7.222;2023-04-27T08:46:17;96044.53;;;37.71;14.23
13581;BME280;6861;46.170;7.222;2023-04-27T08:48:48;96034.63;;;37.39;13.95
13581;BME280;6861;46.170;7.222;2023-04-27T08:51:17;96025.91;;;37.06;14.46
13581;BME280;6861;46.170;7.222;2023-04-27T08:53:49;96021.31;;;37.41;13.79
13581;BME280;6861;46.170;7.222;2023-04-27T08:56:19;96020.59;;;37.62;13.97
13581;BME280;6861;46.170;7.222;2023-04-27T08:58:49;96013.53;;;37.99;13.89
13581;BME280;6861;46.170;7.222;2023-04-27T09:01:17;96001.53;;;38.19;13.97
13581;BME280;6861;46.170;7.222;2023-04-27T09:03:46;95999.09;;;37.64;14.09
13581;BME280;6861;46.170;7.222;2023-04-27T09:06:15;96008.75;;;37.44;14.03
13581;BME280;6861;46.170;7.222;2023-04-27T09:08:44;96003.16;;;37.47;13.58
13581;BME280;6861;46.170;7.222;2023-04-27T09:11:15;96004.00;;;37.22;13.63
13581;BME280;6861;46.170;7.222;2023-04-27T09:13:43;96001.91;;;36.88;13.70
13581;BME280;6861;46.170;7.222;2023-04-27T09:16:12;95996.59;;;35.69;13.89
13581;BME280;6861;46.170;7.222;2023-04-27T09:18:42;95987.44;;;34.78;14.51
13581;BME280;6861;46.170;7.222;2023-04-27T09:21:10;95988.13;;;34.66;14.80
13581;BME280;6861;46.170;7.222;2023-04-27T09:23:48;95989.19;;;35.04;14.72
13581;BME280;6861;46.170;7.222;2023-04-27T09:26:20;95980.72;;;35.51;14.15
13581;BME280;6861;46.170;7.222;2023-04-27T09:28:52;95980.84;;;35.76;14.10
13581;BME280;6861;46.170;7.222;2023-04-27T09:31:29;95977.53;;;36.14;14.27
13581;BME280;6861;46.170;7.222;2023-04-27T09:33:57;95975.59;;;37.07;13.52
13581;BME280;6861;46.170;7.222;2023-04-27T09:36:25;95975.19;;;36.41;13.79
13581;BME280;6861;46.170;7.222;2023-04-27T09:38:54;95967.63;;;35.30;14.61
13581;BME280;6861;46.170;7.222;2023-04-27T09:41:24;95963.69;;;34.82;14.96
13581;BME280;6861;46.170;7.222;2023-04-27T09:43:53;95972.66;;;35.93;14.21
13581;BME280;6861;46.170;7.222;2023-04-27T09:46:24;95979.25;;;37.86;13.44
13581;BME280;6861;46.170;7.222;2023-04-27T09:48:53;95967.94;;;40.15;11.97
13581;BME280;6861;46.170;7.222;2023-04-27T09:51:23;95971.31;;;42.52;10.92
13581;BME280;6861;46.170;7.222;2023-04-27T09:53:53;95959.06;;;43.99;10.14
13581;BME280;6861;46.170;7.222;2023-04-27T09:56:32;95955.91;;;45.44;9.43
13581;BME280;6861;46.170;7.222;2023-04-27T09:59:17;95946.88;;;46.81;8.58
13581;BME280;6861;46.170;7.222;2023-04-27T10:01:54;95935.81;;;46.36;8.88
13581;BME280;6861;46.170;7.222;2023-04-27T10:04:44;95920.88;;;44.44;9.70
13581;BME280;6861;46.170;7.222;2023-04-27T10:07:16;95917.59;;;41.98;10.76
13581;BME280;6861;46.170;7.222;2023-04-27T10:09:45;95924.97;;;41.06;11.21
13581;BME280;6861;46.170;7.222;2023-04-27T10:12:17;95920.13;;;39.89;11.32
13581;BME280;6861;46.170;7.222;2023-04-27T10:14:50;95931.25;;;37.97;12.36
13581;BME280;6861;46.170;7.222;2023-04-27T10:17:23;95924.88;;;38.00;12.74
13581;BME280;6861;46.170;7.222;2023-04-27T10:19:54;95922.53;;;39.23;12.04
13581;BME280;6861;46.170;7.222;2023-04-27T10:22:36;95920.16;;;39.80;11.81
13581;BME280;6861;46.170;7.222;2023-04-27T10:25:13;95917.69;;;40.18;11.74
13581;BME280;6861;46.170;7.222;2023-04-27T10:27:48;95918.44;;;41.03;11.06
13581;BME280;6861;46.170;7.222;2023-04-27T10:30:18;95917.63;;;40.46;11.28
13581;BME280;6861;46.170;7.222;2023-04-27T10:32:51;95912.88;;;39.68;11.43
13581;BME280;6861;46.170;7.222;2023-04-27T10:35:20;95907.97;;;39.44;11.73
13581;BME280;6861;46.170;7.222;2023-04-27T10:37:49;95906.31;;;38.17;12.46
13581;BME280;6861;46.170;7.222;2023-04-27T10:40:18;95901.16;;;36.56;13.57
13581;BME280;6861;46.170;7.222;2023-04-27T10:42:48;95891.78;;;35.15;14.33
13581;BME280;6861;46.170;7.222;2023-04-27T10:45:26;95893.13;;;34.03;14.36
13581;BME280;6861;46.170;7.222;2023-04-27T10:47:59;95901.81;;;33.08;14.94
13581;BME280;6861;46.170;7.222;2023-04-27T10:50:28;95894.50;;;32.28;15.49
13581;BME280;6861;46.170;7.222;2023-04-27T10:53:03;95885.16;;;31.64;16.01
13581;BME280;6861;46.170;7.222;2023-04-27T10:55:32;95888.06;;;31.05;16.81
13581;BME280;6861;46.170;7.222;2023-04-27T10:58:02;95876.13;;;30.44;17.01
13581;BME280;6861;46.170;7.222;2023-04-27T11:00:31;95870.97;;;29.97;17.55
13581;BME280;6861;46.170;7.222;2023-04-27T11:03:10;95871.09;;;29.58;17.63
13581;BME280;6861;46.170;7.222;2023-04-27T11:05:40;95872.34;;;29.18;18.12
13581;BME280;6861;46.170;7.222;2023-04-27T11:08:11;95868.09;;;28.78;18.28
13581;BME280;6861;46.170;7.222;2023-04-27T11:10:42;95865.00;;;28.51;18.50
13581;BME280;6861;46.170;7.222;2023-04-27T11:13:13;95865.75;;;28.27;18.20
13581;BME280;6861;46.170;7.222;2023-04-27T11:15:43;95861.44;;;28.12;18.55
13581;BME280;6861;46.170;7.222;2023-04-27T11:18:12;95854.09;;;28.01;19.47
13581;BME280;6861;46.170;7.222;2023-04-27T11:20:42;95857.84;;;27.65;18.95
13581;BME280;6861;46.170;7.222;2023-04-27T11:23:21;95845.44;;;27.50;19.42
13581;BME280;6861;46.170;7.222;2023-04-27T11:25:50;95833.94;;;27.53;19.83
13581;BME280;6861;46.170;7.222;2023-04-27T11:28:20;95833.25;;;27.63;20.38
13581;BME280;6861;46.170;7.222;2023-04-27T11:30:54;95840.44;;;27.48;19.71
13581;BME280;6861;46.170;7.222;2023-04-27T11:33:23;95830.97;;;27.03;20.50
13581;BME280;6861;46.170;7.222;2023-04-27T11:35:51;95828.88;;;26.78;20.52
13581;BME280;6861;46.170;7.222;2023-04-27T11:38:19;95841.09;;;26.72;20.16
13581;BME280;6861;46.170;7.222;2023-04-27T11:40:58;95836.38;;;26.59;21.19
13581;BME280;6861;46.170;7.222;2023-04-27T11:43:28;95834.03;;;26.54;20.91
13581;BME280;6861;46.170;7.222;2023-04-27T11:45:56;95829.25;;;26.33;21.61
13581;BME280;6861;46.170;7.222;2023-04-27T11:48:26;95824.38;;;26.08;21.81
13581;BME280;6861;46.170;7.222;2023-04-27T11:50:56;95818.81;;;25.87;21.93
13581;BME280;6861;46.170;7.222;2023-04-27T11:53:31;95830.25;;;25.84;22.44
13581;BME280;6861;46.170;7.222;2023-04-27T11:56:00;95819.63;;;25.91;22.35
13581;BME280;6861;46.170;7.222;2023-04-27T11:58:34;95821.28;;;26.06;22.91
13581;BME280;6861;46.170;7.222;2023-04-27T12:01:03;95818.75;;;26.21;22.77
13581;BME280;6861;46.170;7.222;2023-04-27T12:03:31;95810.81;;;26.31;22.84
13581;BME280;6861;46.170;7.222;2023-04-27T12:06:01;95816.28;;;26.42;23.01
13581;BME280;6861;46.170;7.222;2023-04-27T12:08:49;95811.00;;;26.49;23.25
13581;BME280;6861;46.170;7.222;2023-04-27T12:11:17;95814.06;;;26.51;22.74
13581;BME280;6861;46.170;7.222;2023-04-27T12:13:46;95815.63;;;26.52;22.48
13581;BME280;6861;46.170;7.222;2023-04-27T12:16:14;95805.69;;;26.56;22.55
13581;BME280;6861;46.170;7.222;2023-04-27T12:18:43;95799.56;;;26.59;22.94
13581;BME280;6861;46.170;7.222;2023-04-27T12:21:11;95799.88;;;26.51;22.54
13581;BME280;6861;46.170;7.222;2023-04-27T12:23:39;95802.97;;;26.16;22.74
13581;BME280;6861;46.170;7.222;2023-04-27T12:26:08;95798.44;;;26.20;23.00
13581;BME280;6861;46.170;7.222;2023-04-27T12:28:40;95810.00;;;26.27;22.87
13581;BME280;6861;46.170;7.222;2023-04-27T12:31:12;95802.34;;;26.29;22.34
13581;BME280;6861;46.170;7.222;2023-04-27T12:33:40;95801.03;;;26.12;22.20
13581;BME280;6861;46.170;7.222;2023-04-27T12:36:09;95806.91;;;26.25;22.19
13581;BME280;6861;46.170;7.222;2023-04-27T12:38:37;95806.34;;;26.46;22.46
13581;BME280;6861;46.170;7.222;2023-04-27T12:41:05;95796.53;;;26.64;21.76
13581;BME280;6861;46.170;7.222;2023-04-27T12:43:33;95797.34;;;26.68;22.01
13581;BME280;6861;46.170;7.222;2023-04-27T12:46:03;95797.44;;;26.83;21.75
13581;BME280;6861;46.170;7.222;2023-04-27T12:48:32;95803.69;;;27.01;22.36
13581;BME280;6861;46.170;7.222;2023-04-27T12:51:00;95794.22;;;27.18;22.21
13581;BME280;6861;46.170;7.222;2023-04-27T12:53:29;95793.88;;;27.26;22.18
13581;BME280;6861;46.170;7.222;2023-04-27T12:55:58;95788.19;;;27.38;22.07
13581;BME280;6861;46.170;7.222;2023-04-27T12:58:27;95784.72;;;27.38;21.33
13581;BME280;6861;46.170;7.222;2023-04-27T13:00:56;95787.03;;;27.39;21.45
13581;BME280;6861;46.170;7.222;2023-04-27T13:03:24;95783.16;;;27.33;21.36
13581;BME280;6861;46.170;7.222;2023-04-27T13:05:54;95778.56;;;27.37;21.67
13581;BME280;6861;46.170;7.222;2023-04-27T13:08:22;95778.97;;;27.39;21.07
13581;BME280;6861;46.170;7.222;2023-04-27T13:10:50;95777.06;;;27.43;21.63
13581;BME280;6861;46.170;7.222;2023-04-27T13:13:18;95775.13;;;27.40;21.73
13581;BME280;6861;46.170;7.222;2023-04-27T13:15:46;95770.53;;;27.41;21.88
13581;BME280;6861;46.170;7.222;2023-04-27T13:18:14;95770.91;;;27.39;21.89
13581;BME280;6861;46.170;7.222;2023-04-27T13:20:43;95768.56;;;27.34;21.72